Time;durP1;ratioP1;P1;durP2;ratioP2;P2;SDS_P1;SDS_P2;PMS_P1;PMS_P2;Temp;Humidity;BMP_temperature;BMP_pressure;BME280_temperature;BME280_humidity;BME280_pressure;Samples;Min_cycle;Max_cycle;Signal;HPM_P1;HPM_P2
2022/12/30 00:01:13;;;;;;;16.73;11.20;;;;;;;6.85;100.00;93869.75;5084781;28;20082;-71
2022/12/30 00:03:42;;;;;;;15.55;10.85;;;;;;;6.85;100.00;93870.53;5077760;28;20051;-70
2022/12/30 00:06:14;;;;;;;16.25;11.00;;;;;;;6.88;100.00;93874.50;5078679;28;20052;-72
2022/12/30 00:08:47;;;;;;;17.63;11.68;;;;;;;6.88;100.00;93875.31;5077411;28;20052;-72
2022/12/30 00:11:15;;;;;;;19.13;12.85;;;;;;;6.89;100.00;93873.56;5078196;28;20504;-72
2022/12/30 00:33:21;;;;;;;14.25;10.05;;;;;;;6.90;100.00;93881.03;5089872;28;20055;-72
2022/12/30 00:35:51;;;;;;;13.35;9.45;;;;;;;6.92;100.00;93888.53;5089597;28;20044;-71
2022/12/30 00:38:18;;;;;;;13.48;9.57;;;;;;;6.92;100.00;93879.09;5089859;28;20044;-71
2022/12/30 00:43:25;;;;;;;13.65;9.38;;;;;;;6.85;100.00;93870.53;5088593;28;20051;-71
2022/12/30 00:45:53;;;;;;;15.00;9.82;;;;;;;6.79;100.00;93881.41;5089575;28;20108;-71
2022/12/30 00:56:34;;;;;;;13.93;9.40;;;;;;;6.66;100.00;93877.66;5069041;28;20169;-71
2022/12/30 00:59:00;;;;;;;12.48;9.32;;;;;;;6.53;100.00;93862.13;5068909;28;20044;-71
2022/12/30 01:01:27;;;;;;;12.27;9.18;;;;;;;6.58;100.00;93875.16;5069030;28;20074;-71
2022/12/30 01:03:54;;;;;;;14.70;9.50;;;;;;;6.60;100.00;93874.97;5068751;28;20049;-71
2022/12/30 01:06:22;;;;;;;16.02;9.65;;;;;;;6.60;100.00;93875.78;5068899;28;20052;-71
2022/12/30 01:08:48;;;;;;;13.02;9.60;;;;;;;6.59;100.00;93879.31;5068503;28;20094;-71
2022/12/30 01:11:15;;;;;;;13.02;9.07;;;;;;;6.58;100.00;93875.16;5069010;28;20431;-71
2022/12/30 01:13:42;;;;;;;12.10;8.48;;;;;;;6.58;100.00;93885.38;5069067;28;20052;-71
2022/12/30 01:16:11;;;;;;;12.63;9.55;;;;;;;6.58;100.00;93874.38;5068696;28;20049;-71
2022/12/30 01:18:38;;;;;;;14.20;9.02;;;;;;;6.57;100.00;93876.09;5068515;28;20084;-71
2022/12/30 01:21:07;;;;;;;16.00;9.98;;;;;;;6.55;100.00;93878.03;5068806;28;20048;-71
2022/12/30 01:23:35;;;;;;;14.82;9.75;;;;;;;6.50;100.00;93877.75;5068271;28;20545;-71
2022/12/30 01:26:03;;;;;;;12.27;8.88;;;;;;;6.50;100.00;93867.53;5068461;28;20492;-71
2022/12/30 01:28:31;;;;;;;15.05;9.75;;;;;;;6.54;100.00;93877.25;5068251;28;20513;-71
2022/12/30 01:30:58;;;;;;;14.95;10.02;;;;;;;6.57;100.00;93868.44;5068701;28;20412;-71
2022/12/30 01:33:25;;;;;;;17.10;10.52;;;;;;;6.60;100.00;93873.25;5068386;28;20413;-71
2022/12/30 01:35:52;;;;;;;13.60;9.27;;;;;;;6.65;100.00;93870.97;5068065;28;20094;-71
2022/12/30 01:38:19;;;;;;;16.05;10.75;;;;;;;6.64;100.00;93873.69;5068539;28;20044;-71
2022/12/30 01:40:47;;;;;;;16.77;9.65;;;;;;;6.63;100.00;93874.66;5068564;28;20463;-71
2022/12/30 01:43:16;;;;;;;14.55;10.13;;;;;;;6.58;100.00;93853.94;5068371;28;20090;-71
2022/12/30 01:45:46;;;;;;;14.13;10.43;;;;;;;6.63;100.00;93869.56;5068545;28;20098;-71
2022/12/30 01:48:23;;;;;;;15.40;9.88;;;;;;;6.60;100.00;93862.22;5068011;28;20040;-71
2022/12/30 01:50:53;;;;;;;15.75;11.23;;;;;;;6.60;100.00;93870.69;5070954;28;20040;-71
2022/12/30 01:53:23;;;;;;;15.02;9.77;;;;;;;6.60;100.00;93865.56;5068513;28;20050;-71
2022/12/30 01:55:57;;;;;;;15.07;10.50;;;;;;;6.58;100.00;93864.97;5068323;28;20053;-71
2022/12/30 01:58:29;;;;;;;16.40;10.57;;;;;;;6.53;100.00;93867.22;5068234;28;20544;-71
2022/12/30 02:00:56;;;;;;;17.48;10.85;;;;;;;6.48;100.00;93861.81;5068315;28;20047;-71
2022/12/30 02:03:25;;;;;;;14.45;10.52;;;;;;;6.45;100.00;93857.03;5070763;28;20044;-71
2022/12/30 02:05:52;;;;;;;15.88;11.43;;;;;;;6.44;100.00;93855.47;5071952;28;20101;-71
2022/12/30 02:08:20;;;;;;;18.70;11.23;;;;;;;6.43;100.00;93861.53;5072171;28;20041;-71
2022/12/30 02:10:50;;;;;;;19.52;13.02;;;;;;;6.37;100.00;93853.56;5071813;28;20041;-71
2022/12/30 02:13:20;;;;;;;21.35;13.38;;;;;;;6.36;100.00;93856.28;5072272;28;20041;-71
2022/12/30 02:16:05;;;;;;;22.50;13.30;;;;;;;6.30;100.00;93862.88;5071704;28;20048;-71
2022/12/30 02:18:47;;;;;;;20.10;12.93;;;;;;;6.26;100.00;93859.06;5071630;28;20044;-71
2022/12/30 02:21:48;;;;;;;15.70;10.40;;;;;;;6.20;100.00;93857.19;5071478;28;20508;-71
2022/12/30 02:24:39;;;;;;;17.52;11.27;;;;;;;6.12;100.00;93856.22;5038465;28;20166;-72
2022/12/30 02:27:30;;;;;;;19.13;11.43;;;;;;;6.05;100.00;93860.41;5071496;28;20044;-71
2022/12/30 02:30:13;;;;;;;17.55;10.82;;;;;;;5.98;100.00;93862.00;5071357;28;20044;-71
2022/12/30 02:33:16;;;;;;;18.23;11.40;;;;;;;5.92;100.00;93855.78;5071946;28;20455;-71
2022/12/30 02:35:55;;;;;;;17.05;11.85;;;;;;;5.80;100.00;93860.47;5071871;28;20044;-71
2022/12/30 02:38:31;;;;;;;19.08;12.07;;;;;;;5.77;100.00;93849.78;5071347;28;20049;-71
2022/12/30 02:46:43;;;;;;;22.67;14.20;;;;;;;5.74;100.00;93854.25;5071293;28;20087;-71
2022/12/30 02:49:14;;;;;;;32.13;18.02;;;;;;;5.71;100.00;93846.94;5071338;28;20045;-71
2022/12/30 02:54:29;;;;;;;24.98;15.07;;;;;;;5.71;100.00;93849.50;5070955;28;20178;-71
2022/12/30 02:56:56;;;;;;;30.05;17.38;;;;;;;5.74;100.00;93848.38;5070977;28;20451;-71
2022/12/30 03:05:26;;;;;;;20.98;13.82;;;;;;;5.76;100.00;93846.44;5070710;28;20059;-72
2022/12/30 03:08:00;;;;;;;20.15;13.82;;;;;;;5.76;100.00;93854.09;5070549;28;20044;-71
2022/12/30 03:13:24;;;;;;;20.25;12.80;;;;;;;5.80;100.00;93850.28;5070661;28;20051;-71
2022/12/30 03:16:00;;;;;;;20.38;12.73;;;;;;;5.84;100.00;93853.28;5070084;28;20045;-71
2022/12/30 03:18:28;;;;;;;;;;;;;;;5.88;100.00;93855.34;5071095;28;20044;-71
2022/12/30 03:20:55;;;;;;;16.52;11.75;;;;;;;5.83;100.00;93847.38;5070843;28;19924;-71
2022/12/30 03:29:32;;;;;;;20.40;12.90;;;;;;;5.87;100.00;93860.59;5028104;28;20130;-71
2022/12/30 03:31:59;;;;;;;19.27;12.90;;;;;;;5.88;100.00;93852.00;5052690;28;20093;-71
2022/12/30 03:34:28;;;;;;;19.15;12.68;;;;;;;5.85;100.00;93839.56;5070566;28;20090;-71
2022/12/30 03:36:59;;;;;;;18.58;12.13;;;;;;;5.86;100.00;93853.91;5070408;28;20040;-71
2022/12/30 03:39:32;;;;;;;16.67;11.80;;;;;;;5.87;100.00;93855.50;5070717;28;20094;-71
2022/12/30 03:42:01;;;;;;;19.27;11.73;;;;;;;5.84;100.00;93848.19;5070480;28;20044;-71
2022/12/30 03:44:28;;;;;;;16.45;11.25;;;;;;;5.82;100.00;93853.44;5070392;28;20070;-71
2022/12/30 03:46:54;;;;;;;18.67;12.73;;;;;;;5.87;100.00;93866.50;5069815;28;20099;-71
2022/12/30 03:49:21;;;;;;;24.65;12.00;;;;;;;5.84;100.00;93868.59;5070261;28;20036;-71
2022/12/30 03:51:48;;;;;;;19.70;12.20;;;;;;;5.79;100.00;93874.16;5072868;28;20090;-70
2022/12/30 03:54:15;;;;;;;17.73;12.60;;;;;;;5.77;100.00;93872.72;5069900;28;20049;-69
2022/12/30 03:56:43;;;;;;;19.75;12.80;;;;;;;5.67;100.00;93868.63;5070168;28;20048;-69
2022/12/30 03:59:10;;;;;;;19.77;12.88;;;;;;;5.62;100.00;93866.53;5069850;28;20056;-70
2022/12/30 04:01:36;;;;;;;17.15;11.50;;;;;;;5.57;100.00;93871.34;5070012;28;20094;-70
2022/12/30 04:04:03;;;;;;;20.17;12.73;;;;;;;5.55;100.00;93878.34;5069741;28;20097;-69
2022/12/30 04:06:30;;;;;;;21.55;14.75;;;;;;;5.52;100.00;93871.03;5069517;28;20049;-69
2022/12/30 04:08:56;;;;;;;18.38;13.10;;;;;;;5.52;100.00;93872.78;5069887;28;20562;-69
2022/12/30 04:11:23;;;;;;;20.15;13.55;;;;;;;5.50;100.00;93878.03;5069798;28;20090;-69
2022/12/30 04:13:52;;;;;;;18.92;13.15;;;;;;;5.46;100.00;93877.56;5069403;28;20056;-69
2022/12/30 04:16:19;;;;;;;16.38;12.80;;;;;;;5.44;100.00;93878.69;5069749;28;20040;-69
2022/12/30 04:18:46;;;;;;;18.70;13.60;;;;;;;5.42;100.00;93880.59;5068844;28;20043;-70
2022/12/30 04:21:12;;;;;;;20.52;15.52;;;;;;;5.39;100.00;93886.81;5067249;28;20045;-70
2022/12/30 04:23:39;;;;;;;21.40;14.93;;;;;;;5.37;100.00;93885.38;5068303;28;20500;-71
2022/12/30 04:26:24;;;;;;;21.50;15.27;;;;;;;5.37;100.00;93891.25;5069262;28;20040;-71
2022/12/30 04:28:52;;;;;;;25.48;17.30;;;;;;;5.32;100.00;93881.56;5069033;28;20458;-70
2022/12/30 04:31:19;;;;;;;27.77;17.73;;;;;;;5.28;100.00;93884.59;5069300;28;20036;-70
2022/12/30 04:33:48;;;;;;;28.20;18.75;;;;;;;5.26;100.00;93889.03;5069381;28;20044;-70
2022/12/30 04:36:15;;;;;;;28.23;17.23;;;;;;;5.20;100.00;93887.94;5069197;28;20049;-71
2022/12/30 04:38:42;;;;;;;27.52;17.73;;;;;;;5.15;100.00;93890.16;5068824;28;20044;-70
2022/12/30 04:41:09;;;;;;;35.85;20.95;;;;;;;5.11;100.00;93889.69;5069138;28;20059;-70
2022/12/30 04:43:36;;;;;;;33.30;21.65;;;;;;;5.07;100.00;93885.84;5069076;28;20041;-70
2022/12/30 04:46:04;;;;;;;32.28;22.42;;;;;;;4.98;100.00;93874.06;5069070;28;20044;-71
2022/12/30 04:48:31;;;;;;;40.75;25.60;;;;;;;5.00;100.00;93900.19;5078517;28;20116;-70
2022/12/30 04:50:58;;;;;;;48.20;27.98;;;;;;;4.95;100.00;93900.63;5087990;28;20093;-71
2022/12/30 04:53:24;;;;;;;35.88;23.88;;;;;;;4.90;100.00;93906.22;5089580;28;20048;-71
2022/12/30 04:55:53;;;;;;;29.55;20.33;;;;;;;4.86;100.00;93907.47;5083140;28;20053;-71
2022/12/30 04:58:19;;;;;;;30.60;20.27;;;;;;;4.85;100.00;93900.78;5068875;28;20416;-71
2022/12/30 05:00:47;;;;;;;27.02;19.73;;;;;;;4.82;100.00;93906.22;5068726;28;20045;-71
2022/12/30 05:03:15;;;;;;;28.60;19.90;;;;;;;4.79;100.00;93909.88;5068372;28;20048;-70
2022/12/30 05:05:42;;;;;;;30.08;20.02;;;;;;;4.75;100.00;93915.41;5077090;28;20089;-70
2022/12/30 05:08:09;;;;;;;30.75;19.00;;;;;;;4.73;100.00;93909.69;5085423;28;20392;-69
2022/12/30 05:10:36;;;;;;;30.63;19.92;;;;;;;4.70;100.00;93907.44;5080262;28;20075;-69
2022/12/30 05:13:03;;;;;;;30.58;21.10;;;;;;;4.67;100.00;93904.25;5085767;28;20044;-69
2022/12/30 05:15:30;;;;;;;32.83;23.63;;;;;;;4.69;100.00;93911.75;5089035;28;20392;-69
2022/12/30 05:17:56;;;;;;;34.90;23.60;;;;;;;4.65;100.00;93913.00;5085872;28;20040;-70
2022/12/30 05:20:25;;;;;;;33.10;22.33;;;;;;;4.62;100.00;93916.66;5088836;28;20101;-70
2022/12/30 05:22:52;;;;;;;30.48;22.27;;;;;;;4.63;100.00;93909.84;5087979;28;20093;-70
2022/12/30 05:28:02;;;;;;;31.90;21.90;;;;;;;4.62;100.00;93914.13;5088926;28;20047;-70
2022/12/30 05:30:29;;;;;;;34.30;22.88;;;;;;;4.62;100.00;93915.84;5089354;28;20048;-70
2022/12/30 05:32:56;;;;;;;36.00;22.92;;;;;;;4.66;100.00;93922.22;5089014;28;20044;-69
2022/12/30 05:35:24;;;;;;;38.03;24.83;;;;;;;4.68;100.00;93915.25;5088940;28;20052;-69
2022/12/30 05:37:50;;;;;;;35.28;21.88;;;;;;;4.67;100.00;93921.28;5090949;28;20044;-70
2022/12/30 05:40:17;;;;;;;31.60;20.25;;;;;;;4.71;100.00;93921.78;5093265;28;20125;-70
2022/12/30 05:42:44;;;;;;;29.73;21.40;;;;;;;4.67;100.00;93924.63;5092900;28;20093;-70
2022/12/30 05:45:11;;;;;;;33.90;22.02;;;;;;;4.74;100.00;93926.53;5092834;28;20563;-70
2022/12/30 05:47:38;;;;;;;27.48;19.73;;;;;;;4.74;100.00;93927.34;5092932;28;20044;-70
2022/12/30 05:50:05;;;;;;;29.23;19.42;;;;;;;4.75;100.00;93934.03;5093131;28;20056;-70
2022/12/30 05:52:33;;;;;;;29.60;21.48;;;;;;;4.79;100.00;93935.31;5092544;28;20044;-70
2022/12/30 05:55:00;;;;;;;34.72;22.50;;;;;;;4.76;100.00;93935.63;5092616;28;20055;-70
2022/12/30 05:57:27;;;;;;;36.13;21.77;;;;;;;4.84;100.00;93937.38;5092716;28;20048;-69
2022/12/30 05:59:53;;;;;;;31.80;21.27;;;;;;;4.82;100.00;93941.84;5092571;28;20128;-69
2022/12/30 06:02:20;;;;;;;163.18;81.70;;;;;;;4.88;100.00;93940.41;5093090;28;20405;-69
2022/12/30 06:04:47;;;;;;;39.92;25.20;;;;;;;4.90;100.00;93941.03;5092728;28;20488;-69
2022/12/30 06:07:14;;;;;;;36.42;23.38;;;;;;;4.92;100.00;93941.69;5092665;28;20097;-69
2022/12/30 06:09:42;;;;;;;53.97;37.38;;;;;;;4.97;100.00;93949.69;5088303;28;20093;-70
2022/12/30 06:12:08;;;;;;;42.70;27.23;;;;;;;4.95;100.00;93938.81;5090623;28;20094;-70
2022/12/30 06:14:35;;;;;;;42.88;23.45;;;;;;;5.02;100.00;93957.63;5092281;28;20048;-70
2022/12/30 06:17:02;;;;;;;41.60;28.05;;;;;;;5.04;100.00;93955.72;5092291;28;20105;-69
2022/12/30 06:19:28;;;;;;;39.45;27.77;;;;;;;5.04;100.00;93953.19;5092409;28;20492;-69
2022/12/30 06:21:55;;;;;;;40.67;26.40;;;;;;;5.11;100.00;93962.72;5092127;28;20044;-69
2022/12/30 06:24:22;;;;;;;45.47;29.13;;;;;;;5.16;100.00;93952.88;5092400;28;20048;-69
2022/12/30 06:26:50;;;;;;;39.75;28.27;;;;;;;5.15;100.00;93958.94;5092065;28;20040;-69
2022/12/30 06:29:17;;;;;;;46.50;33.28;;;;;;;5.06;100.00;93955.56;5092373;28;20097;-69
2022/12/30 06:31:43;;;;;;;66.60;42.75;;;;;;;4.85;100.00;93958.56;5090440;28;20446;-69
2022/12/30 06:34:10;;;;;;;60.30;40.50;;;;;;;4.85;100.00;93959.34;5091792;28;20105;-69
2022/12/30 06:36:37;;;;;;;60.03;38.78;;;;;;;4.76;100.00;93967.91;5090232;28;20044;-69
2022/12/30 06:39:03;;;;;;;64.72;39.80;;;;;;;4.74;100.00;93968.06;5092325;28;20125;-69
2022/12/30 06:41:30;;;;;;;83.35;53.65;;;;;;;4.59;100.00;93972.97;5091357;28;20051;-69
2022/12/30 06:43:58;;;;;;;83.13;53.90;;;;;;;4.61;100.00;93977.88;5091775;28;20044;-69
2022/12/30 06:46:25;;;;;;;70.10;39.90;;;;;;;4.69;100.00;93977.91;5092144;28;20052;-69
2022/12/30 06:48:52;;;;;;;59.97;38.47;;;;;;;4.70;100.00;93966.78;5091890;28;20044;-69
2022/12/30 06:51:18;;;;;;;53.78;34.50;;;;;;;4.78;100.00;93971.88;5092075;28;20097;-69
2022/12/30 06:53:45;;;;;;;55.28;37.80;;;;;;;4.85;100.00;93963.66;5091515;28;20101;-69
2022/12/30 06:56:12;;;;;;;66.15;45.65;;;;;;;4.92;100.00;93965.41;5091798;28;20147;-69
2022/12/30 06:58:38;;;;;;;52.85;32.60;;;;;;;4.97;100.00;93962.41;5091455;28;20176;-69
2022/12/30 07:01:06;;;;;;;46.75;29.67;;;;;;;5.07;100.00;93964.81;5091829;28;20113;-69
2022/12/30 07:03:33;;;;;;;50.95;31.20;;;;;;;5.12;100.00;93967.69;5091530;28;20044;-69
2022/12/30 07:06:00;;;;;;;45.42;27.42;;;;;;;5.17;100.00;93972.28;5091524;28;20052;-69
2022/12/30 07:08:27;;;;;;;34.95;23.42;;;;;;;5.22;100.00;93970.06;5091619;28;20044;-69
2022/12/30 07:10:54;;;;;;;64.65;35.58;;;;;;;5.27;100.00;93974.72;5091419;28;20447;-69
2022/12/30 07:13:21;;;;;;;46.53;30.85;;;;;;;5.22;100.00;93970.06;5090872;28;20040;-69
2022/12/30 07:15:48;;;;;;;35.30;22.70;;;;;;;5.29;100.00;93976.16;5090998;28;20074;-69
2022/12/30 07:18:16;;;;;;;36.28;23.42;;;;;;;5.25;100.00;93976.59;5091413;28;20052;-69
2022/12/30 07:20:43;;;;;;;34.55;21.85;;;;;;;5.25;100.00;93971.50;5086358;28;20048;-70
2022/12/30 07:23:10;;;;;;;35.72;21.92;;;;;;;5.31;100.00;93971.69;5091376;28;21140;-69
2022/12/30 07:25:37;;;;;;;35.90;20.85;;;;;;;5.31;100.00;93973.41;5091009;28;20048;-69
2022/12/30 07:28:05;;;;;;;38.85;21.45;;;;;;;5.35;100.00;93980.59;5091478;28;20040;-69
2022/12/30 07:30:33;;;;;;;42.22;25.63;;;;;;;5.43;100.00;93986.66;5090853;28;20047;-69
2022/12/30 07:32:59;;;;;;;38.95;22.65;;;;;;;5.48;100.00;93982.66;5091340;28;20090;-69
2022/12/30 07:35:27;;;;;;;37.28;22.30;;;;;;;5.51;100.00;93980.78;5090841;28;20066;-69
2022/12/30 07:37:54;;;;;;;38.38;23.25;;;;;;;5.60;100.00;93984.94;5090813;28;20044;-69
2022/12/30 07:40:21;;;;;;;35.20;22.00;;;;;;;5.70;100.00;93979.66;5083383;28;20090;-69
2022/12/30 07:42:48;;;;;;;42.67;25.10;;;;;;;5.77;100.00;93977.25;5080275;28;20052;-69
2022/12/30 07:45:15;;;;;;;30.95;19.73;;;;;;;5.81;100.00;93984.44;5090203;28;20097;-69
2022/12/30 07:47:43;;;;;;;31.38;20.88;;;;;;;5.85;100.00;93980.59;5090598;28;20048;-69
2022/12/30 07:50:11;;;;;;;30.58;20.33;;;;;;;5.80;100.00;93987.94;5091030;28;20080;-69
2022/12/30 07:52:39;;;;;;;41.67;24.20;;;;;;;5.81;100.00;93986.97;5090829;28;20083;-69
2022/12/30 07:55:07;;;;;;;29.67;19.05;;;;;;;5.79;100.00;93993.19;5090334;28;20048;-69
2022/12/30 07:57:33;;;;;;;34.72;21.85;;;;;;;5.79;100.00;93998.28;5090633;28;20044;-69
2022/12/30 08:00:00;;;;;;;27.23;19.20;;;;;;;5.73;100.00;93994.63;5089747;28;20508;-70
2022/12/30 08:02:27;;;;;;;29.75;19.65;;;;;;;5.80;100.00;93989.69;5090572;28;20048;-70
2022/12/30 08:04:53;;;;;;;27.48;18.77;;;;;;;5.79;100.00;93988.09;5090155;28;20044;-69
2022/12/30 08:07:20;;;;;;;27.80;18.60;;;;;;;5.83;100.00;93986.81;5090558;28;20048;-70
2022/12/30 08:09:48;;;;;;;33.33;19.52;;;;;;;5.87;100.00;93982.97;5090307;28;20101;-70
2022/12/30 08:12:15;;;;;;;27.05;18.20;;;;;;;5.95;100.00;93980.44;5090434;28;20044;-70
2022/12/30 08:14:42;;;;;;;28.02;16.80;;;;;;;6.08;100.00;93979.97;5090350;28;20044;-69
2022/12/30 08:17:09;;;;;;;30.95;19.95;;;;;;;6.26;100.00;93981.53;5090315;28;20101;-69
2022/12/30 08:19:35;;;;;;;21.58;14.75;;;;;;;6.36;100.00;93983.88;5090032;28;20048;-69
2022/12/30 08:22:02;;;;;;;23.27;15.70;;;;;;;6.47;100.00;93987.84;5090317;28;20496;-69
2022/12/30 08:24:29;;;;;;;22.00;16.05;;;;;;;6.55;100.00;93993.72;5090167;28;20052;-70
2022/12/30 08:26:57;;;;;;;22.17;14.90;;;;;;;6.69;100.00;93983.75;5089855;28;20077;-70
2022/12/30 08:29:23;;;;;;;21.00;14.00;;;;;;;6.80;100.00;93991.06;5090078;28;20055;-69
2022/12/30 08:31:50;;;;;;;19.10;13.40;;;;;;;6.88;100.00;93992.78;5089744;28;20048;-70
2022/12/30 08:34:18;;;;;;;22.05;14.65;;;;;;;7.03;100.00;93992.84;5089906;28;20040;-69
2022/12/30 08:36:44;;;;;;;22.60;14.93;;;;;;;7.14;100.00;93986.59;5089999;28;20127;-69
2022/12/30 08:39:11;;;;;;;18.13;13.07;;;;;;;7.25;100.00;93989.69;5089412;28;20048;-70
2022/12/30 08:41:42;;;;;;;19.25;13.10;;;;;;;7.35;100.00;93988.53;5089489;28;20564;-69
2022/12/30 08:44:10;;;;;;;24.25;15.85;;;;;;;7.48;100.00;93984.59;5089820;28;20044;-69
2022/12/30 08:46:38;;;;;;;21.58;13.02;;;;;;;7.59;100.00;93991.88;5089707;28;20048;-70
2022/12/30 08:49:06;;;;;;;21.70;13.55;;;;;;;7.69;100.00;93994.19;5089493;28;20052;-69
2022/12/30 08:51:33;;;;;;;18.60;11.77;;;;;;;7.79;100.00;93995.72;5081601;28;20093;-71
2022/12/30 08:54:00;;;;;;;18.35;12.90;;;;;;;7.83;100.00;93989.28;5081452;28;20048;-71
2022/12/30 08:56:29;;;;;;;18.60;13.32;;;;;;;7.51;100.00;93922.91;5081063;28;20055;-71
2022/12/30 08:58:57;;;;;;;20.58;15.80;;;;;;;8.11;100.00;93986.94;5089221;28;20042;-71
2022/12/30 09:01:28;;;;;;;19.38;13.77;;;;;;;8.23;100.00;93991.63;5073220;28;20047;-69
2022/12/30 09:03:55;;;;;;;21.50;13.85;;;;;;;8.34;100.00;93982.75;5087829;28;20048;-69
2022/12/30 09:06:30;;;;;;;17.00;10.90;;;;;;;8.37;100.00;93992.59;5079312;28;20044;-69
2022/12/30 09:09:00;;;;;;;20.38;12.70;;;;;;;8.49;100.00;93987.84;5068663;28;20872;-69
2022/12/30 09:11:29;;;;;;;18.05;12.18;;;;;;;8.58;100.00;93986.84;5080277;28;20056;-69
2022/12/30 09:13:57;;;;;;;17.77;11.80;;;;;;;8.69;100.00;93988.13;5090013;28;20071;-69
2022/12/30 09:16:26;;;;;;;24.98;14.05;;;;;;;8.79;100.00;93990.41;5090151;28;20131;-69
2022/12/30 09:18:53;;;;;;;19.42;11.82;;;;;;;8.87;100.00;93982.63;5089253;28;20044;-69
2022/12/30 09:21:20;;;;;;;16.08;10.60;;;;;;;8.99;100.00;93988.09;5089072;28;20044;-69
2022/12/30 09:23:47;;;;;;;16.77;11.30;;;;;;;9.12;100.00;93989.22;5089144;28;20569;-69
2022/12/30 09:26:16;;;;;;;15.55;8.95;;;;;;;9.19;100.00;93984.94;5088937;28;20118;-69
2022/12/30 09:28:42;;;;;;;19.95;11.68;;;;;;;9.23;100.00;93981.81;5089159;28;20086;-69
2022/12/30 09:31:09;;;;;;;14.75;10.10;;;;;;;9.34;100.00;93978.00;5089194;28;20044;-69
2022/12/30 09:33:37;;;;;;;15.57;10.75;;;;;;;9.39;100.00;93980.00;5088776;28;20048;-69
2022/12/30 09:36:05;;;;;;;15.05;9.90;;;;;;;9.41;100.00;93974.72;5088691;28;20094;-69
2022/12/30 09:38:33;;;;;;;16.48;9.98;;;;;;;9.39;100.00;93977.44;5089083;28;20435;-69
2022/12/30 09:41:05;;;;;;;16.98;11.27;;;;;;;9.33;100.00;93968.72;5089283;28;20077;-69
2022/12/30 09:43:36;;;;;;;16.80;10.55;;;;;;;9.44;100.00;93975.13;5088974;28;20100;-69
2022/12/30 09:46:28;;;;;;;13.32;9.25;;;;;;;9.45;100.00;93968.25;5089329;28;20044;-68
2022/12/30 09:49:00;;;;;;;17.45;10.48;;;;;;;9.43;100.00;93967.63;5078477;28;20454;-69
2022/12/30 09:51:35;;;;;;;16.80;10.40;;;;;;;9.60;100.00;93979.25;5088802;28;20044;-68
2022/12/30 09:54:07;;;;;;;16.15;9.52;;;;;;;9.67;100.00;93968.25;5088712;28;20081;-69
2022/12/30 09:56:37;;;;;;;16.83;10.63;;;;;;;9.72;100.00;93960.78;5089063;28;20048;-69
2022/12/30 09:59:11;;;;;;;24.67;13.45;;;;;;;9.83;100.00;93964.59;5088886;28;20554;-69
2022/12/30 10:01:43;;;;;;;13.00;9.07;;;;;;;9.83;100.00;93959.47;5088863;28;20117;-69
2022/12/30 10:04:16;;;;;;;11.98;8.75;;;;;;;9.82;100.00;93963.03;5089118;28;20048;-68
2022/12/30 10:06:52;;;;;;;14.63;9.10;;;;;;;9.82;100.00;93957.88;5088872;28;20098;-70
2022/12/30 10:09:38;;;;;;;;;;;;;;;9.84;100.00;93955.91;5089542;28;20044;-69
2022/12/30 10:12:27;;;;;;;13.07;8.88;;;;;;;9.84;100.00;93946.47;5075962;28;19930;-69
2022/12/30 10:15:07;;;;;;;10.27;7.70;;;;;;;9.89;100.00;93946.69;5088421;28;20563;-69
2022/12/30 10:17:50;;;;;;;18.40;9.32;;;;;;;10.04;100.00;93943.22;5088544;28;20097;-69
2022/12/30 10:20:39;;;;;;;11.80;7.60;;;;;;;10.05;100.00;93947.41;5089054;28;20056;-69
2022/12/30 10:23:18;;;;;;;13.68;7.88;;;;;;;10.11;100.00;93936.38;5089184;28;20051;-70
2022/12/30 10:25:49;;;;;;;14.38;8.63;;;;;;;10.14;100.00;93937.78;5092585;28;20052;-69
2022/12/30 10:28:25;;;;;;;17.50;9.70;;;;;;;10.10;100.00;93926.28;5092321;28;20048;-69
2022/12/30 10:30:52;;;;;;;26.83;12.73;;;;;;;10.14;100.00;93927.50;5092056;28;20099;-69
2022/12/30 10:33:21;;;;;;;13.27;8.32;;;;;;;10.14;100.00;93928.28;5092601;28;20124;-69
2022/12/30 10:35:52;;;;;;;17.80;10.75;;;;;;;10.20;100.00;93920.81;5092073;28;20051;-69
2022/12/30 10:38:23;;;;;;;10.00;6.75;;;;;;;10.28;100.00;93926.59;5092225;28;20052;-69
2022/12/30 10:40:58;;;;;;;32.47;13.43;;;;;;;10.40;100.00;93926.03;5091804;28;20089;-69
2022/12/30 10:43:35;;;;;;;17.20;10.77;;;;;;;10.40;100.00;93916.56;5092279;28;20103;-69
2022/12/30 10:46:16;;;;;;;15.30;8.57;;;;;;;10.39;100.00;93909.84;5092297;28;20288;-69
2022/12/30 10:49:15;;;;;;;22.35;10.68;;;;;;;10.29;100.00;93899.13;5091917;28;20043;-69
2022/12/30 10:51:43;;;;;;;9.45;5.97;;;;;;;10.49;100.00;93909.53;5091892;28;20044;-69
2022/12/30 10:54:10;;;;;;;10.68;6.53;;;;;;;10.47;100.00;93901.22;5091581;28;20500;-69
2022/12/30 10:56:39;;;;;;;12.85;7.43;;;;;;;10.46;100.00;93906.56;5091899;28;20415;-69
2022/12/30 10:59:11;;;;;;;25.48;12.50;;;;;;;10.56;100.00;93897.50;5092014;28;20126;-69
2022/12/30 11:01:39;;;;;;;9.13;6.43;;;;;;;10.51;100.00;93896.50;5091555;28;20047;-69
2022/12/30 11:04:06;;;;;;;12.90;7.93;;;;;;;10.49;100.00;93885.59;5092019;28;20059;-69
2022/12/30 11:06:34;;;;;;;14.77;8.00;;;;;;;10.45;100.00;93880.06;5091839;28;20052;-69
2022/12/30 11:09:22;;;;;;;11.45;7.22;;;;;;;10.50;100.00;93894.88;5091621;28;20093;-69
2022/12/30 11:14:44;;;;;;;46.25;18.63;;;;;;;10.65;100.00;93880.13;5091403;28;20047;-69
2022/12/30 11:17:19;;;;;;;;;;;;;;;10.67;100.00;93879.94;5091884;28;20166;-69
2022/12/30 11:19:53;;;;;;;22.95;13.65;;;;;;;10.54;100.00;93878.91;5091865;28;19969;-69
2022/12/30 11:22:21;;;;;;;58.67;25.92;;;;;;;10.61;100.00;93878.16;5090992;28;20056;-69
2022/12/30 11:24:58;;;;;;;129.93;43.75;;;;;;;10.71;98.04;93883.72;5091104;28;20069;-69
2022/12/30 11:27:42;;;;;;;39.42;19.67;;;;;;;10.47;98.00;93852.44;5091244;28;20094;-69
2022/12/30 11:30:23;;;;;;;54.20;22.90;;;;;;;10.76;100.00;93878.00;5091134;28;20048;-69
2022/12/30 11:32:50;;;;;;;12.10;6.50;;;;;;;10.83;99.77;93884.72;5091175;28;20060;-69
2022/12/30 11:35:36;;;;;;;13.05;7.28;;;;;;;10.83;98.85;93874.44;5090570;28;20074;-69
2022/12/30 11:38:06;;;;;;;25.83;12.57;;;;;;;10.76;99.68;93886.50;5079109;28;20078;-69
2022/12/30 11:40:36;;;;;;;22.80;11.70;;;;;;;10.77;100.00;93877.00;5090887;28;20079;-69
2022/12/30 11:43:21;;;;;;;9.65;5.80;;;;;;;10.86;98.23;93873.28;5090875;28;20528;-69
2022/12/30 11:45:58;;;;;;;15.30;8.20;;;;;;;10.80;99.13;93868.91;5091203;28;20044;-69
2022/12/30 11:48:33;;;;;;;6.55;4.55;;;;;;;10.82;97.32;93872.06;5091170;28;20048;-69
2022/12/30 11:51:02;;;;;;;12.02;7.25;;;;;;;10.83;98.69;93868.50;5077999;28;20048;-69
2022/12/30 11:53:32;;;;;;;9.48;5.97;;;;;;;10.67;97.86;93844.78;5090669;28;20470;-69
2022/12/30 11:56:01;;;;;;;11.07;7.97;;;;;;;10.84;98.04;93859.84;5090629;28;20105;-69
2022/12/30 11:58:32;;;;;;;7.40;5.05;;;;;;;10.88;96.55;93876.44;5088629;28;20080;-69
2022/12/30 12:01:04;;;;;;;7.97;5.75;;;;;;;10.87;98.14;93872.28;5068791;28;20106;-69
2022/12/30 12:03:31;;;;;;;10.43;7.00;;;;;;;10.86;96.75;93870.69;5069703;28;20052;-69
2022/12/30 12:06:08;;;;;;;8.60;6.53;;;;;;;10.79;97.99;93868.09;5089614;28;20059;-69
2022/12/30 12:08:43;;;;;;;8.45;5.40;;;;;;;10.75;97.76;93872.06;5089817;28;20106;-69
2022/12/30 12:11:17;;;;;;;14.32;8.93;;;;;;;10.75;98.88;93873.84;5089779;28;20056;-69
2022/12/30 12:13:51;;;;;;;17.00;11.45;;;;;;;10.80;99.16;93877.41;5089814;28;20097;-69
2022/12/30 12:16:34;;;;;;;12.32;8.68;;;;;;;10.79;94.64;93867.34;5089560;28;20044;-69
2022/12/30 12:19:15;;;;;;;16.63;8.95;;;;;;;10.89;92.24;93875.47;5089434;28;20094;-69
2022/12/30 12:21:43;;;;;;;15.95;10.02;;;;;;;10.94;93.04;93867.16;5089512;28;20101;-69
2022/12/30 12:24:20;;;;;;;21.23;13.90;;;;;;;11.02;94.74;93879.03;5089309;28;20119;-69
2022/12/30 12:26:55;;;;;;;17.00;9.63;;;;;;;11.03;93.04;93868.56;5089459;28;20075;-69
2022/12/30 12:29:22;;;;;;;12.85;8.88;;;;;;;11.01;94.92;93875.66;5089048;28;20089;-69
2022/12/30 12:32:10;;;;;;;24.10;16.40;;;;;;;11.02;94.23;93869.53;5089232;28;20129;-69